Time;durP1;ratioP1;P1;durP2;ratioP2;P2;SDS_P1;SDS_P2;PMS_P1;PMS_P2;Temp;Humidity;BMP_temperature;BMP_pressure;BME280_temperature;BME280_humidity;BME280_pressure;Samples;Min_cycle;Max_cycle;Signal;HPM_P1;HPM_P2
2022/01/13 00:01:04;;;;;;;71.40;22.33;;;;;;;;;;10518519;28;20044;-70
2022/01/13 00:06:08;;;;;;;62.10;21.13;;;;;;;;;;10518658;28;20067;-71
2022/01/13 00:11:10;;;;;;;62.15;21.10;;;;;;;;;;10517938;28;20056;-71
2022/01/13 00:16:26;;;;;;;62.17;21.42;;;;;;;;;;10516456;28;20079;-70
2022/01/13 00:21:35;;;;;;;65.45;20.80;;;;;;;;;;10516640;28;20051;-71
2022/01/13 00:26:38;;;;;;;63.38;20.92;;;;;;;;;;10531262;28;20098;-71
2022/01/13 00:31:42;;;;;;;63.97;20.85;;;;;;;;;;10516935;28;20053;-72
2022/01/13 00:36:46;;;;;;;59.50;20.25;;;;;;;;;;10532416;28;20287;-72
2022/01/13 00:41:49;;;;;;;65.28;21.95;;;;;;;;;;10516457;28;20240;-71
2022/01/13 00:46:57;;;;;;;55.15;18.60;;;;;;;;;;10516747;28;20045;-70
2022/01/13 00:52:02;;;;;;;61.45;19.50;;;;;;;;;;10516547;28;20044;-71
2022/01/13 00:57:05;;;;;;;62.20;19.37;;;;;;;;;;10515433;28;20040;-70
2022/01/13 01:02:08;;;;;;;52.72;16.75;;;;;;;;;;10510684;28;20045;-70
2022/01/13 01:07:12;;;;;;;52.28;18.58;;;;;;;;;;10502505;28;20052;-71
2022/01/13 01:12:14;;;;;;;49.58;17.92;;;;;;;;;;10515019;28;20048;-70
2022/01/13 01:17:17;;;;;;;55.78;19.13;;;;;;;;;;10514300;28;20075;-70
2022/01/13 01:22:40;;;;;;;58.10;19.92;;;;;;;;;;10513368;28;20040;-70
2022/01/13 01:27:47;;;;;;;55.80;19.58;;;;;;;;;;10527963;28;20316;-70
2022/01/13 01:32:50;;;;;;;53.13;18.45;;;;;;;;;;10527981;28;20047;-71
2022/01/13 01:37:55;;;;;;;58.08;19.23;;;;;;;;;;10513736;28;20044;-71
2022/01/13 01:42:57;;;;;;;53.23;19.30;;;;;;;;;;10514052;28;20043;-70
2022/01/13 01:48:03;;;;;;;50.33;18.02;;;;;;;;;;10513813;28;20046;-70
2022/01/13 01:53:07;;;;;;;36.92;14.98;;;;;;;;;;10527449;28;20040;-70
2022/01/13 01:58:10;;;;;;;42.25;16.27;;;;;;;;;;10513793;28;20040;-70
2022/01/13 02:03:13;;;;;;;43.90;17.15;;;;;;;;;;10514195;28;20041;-71
2022/01/13 02:08:17;;;;;;;38.60;15.93;;;;;;;;;;10513746;28;20053;-71
2022/01/13 02:13:23;;;;;;;37.40;15.60;;;;;;;;;;10513358;28;20040;-71
2022/01/13 02:18:30;;;;;;;38.05;15.00;;;;;;;;;;10507773;28;20076;-70
2022/01/13 02:23:39;;;;;;;32.08;14.00;;;;;;;;;;10528376;28;20040;-70
2022/01/13 02:28:43;;;;;;;29.58;13.57;;;;;;;;;;10485676;28;20060;-71
2022/01/13 02:33:46;;;;;;;28.70;14.07;;;;;;;;;;10474811;28;20335;-71
2022/01/13 02:38:51;;;;;;;27.42;13.65;;;;;;;;;;10512875;28;20044;-70
2022/01/13 02:43:55;;;;;;;25.70;12.90;;;;;;;;;;10521400;28;20086;-70
2022/01/13 02:48:58;;;;;;;28.02;13.60;;;;;;;;;;10520904;28;20332;-70
2022/01/13 02:54:04;;;;;;;28.98;14.35;;;;;;;;;;10520891;28;20055;-71
2022/01/13 02:59:07;;;;;;;;;;;;;;;;;;10534943;28;20055;-70
2022/01/13 03:04:11;;;;;;;33.50;16.00;;;;;;;;;;10520584;28;19917;-70
2022/01/13 03:09:15;;;;;;;35.88;15.20;;;;;;;;;;10520843;28;20216;-70
2022/01/13 03:14:18;;;;;;;44.85;16.20;;;;;;;;;;10520570;28;20044;-71
2022/01/13 03:19:22;;;;;;;45.05;18.20;;;;;;;;;;10519915;28;20067;-71
2022/01/13 03:24:27;;;;;;;51.22;17.95;;;;;;;;;;10519689;28;20047;-71
2022/01/13 03:29:30;;;;;;;54.53;18.80;;;;;;;;;;10519705;28;20080;-71
2022/01/13 03:34:33;;;;;;;50.08;18.00;;;;;;;;;;10516842;28;20064;-70
2022/01/13 03:39:37;;;;;;;49.35;19.23;;;;;;;;;;10489028;28;20319;-71
2022/01/13 03:44:40;;;;;;;56.65;17.55;;;;;;;;;;10518361;28;20059;-70
2022/01/13 03:49:43;;;;;;;59.72;18.85;;;;;;;;;;10515659;28;20052;-70
2022/01/13 03:55:42;;;;;;;57.60;17.83;;;;;;;;;;10518167;28;20091;-71
2022/01/13 04:01:24;;;;;;;61.30;20.55;;;;;;;;;;10520115;28;20053;-70
2022/01/13 04:06:41;;;;;;;63.75;19.30;;;;;;;;;;10507671;28;20041;-70
2022/01/13 04:11:45;;;;;;;52.85;18.40;;;;;;;;;;10497303;28;20041;-70
2022/01/13 04:16:48;;;;;;;59.70;19.48;;;;;;;;;;10517933;28;20063;-70
2022/01/13 04:21:50;;;;;;;54.22;18.45;;;;;;;;;;10517154;28;20106;-69
2022/01/13 04:26:56;;;;;;;51.55;16.67;;;;;;;;;;10517806;28;20059;-70
2022/01/13 04:31:59;;;;;;;55.70;17.98;;;;;;;;;;10530921;28;20055;-71
2022/01/13 04:37:03;;;;;;;53.83;18.77;;;;;;;;;;10516957;28;20344;-71
2022/01/13 04:42:10;;;;;;;59.80;19.05;;;;;;;;;;10516655;28;20040;-70
2022/01/13 04:47:12;;;;;;;68.38;19.77;;;;;;;;;;10529985;28;20064;-67
2022/01/13 04:52:15;;;;;;;71.63;20.10;;;;;;;;;;10514465;28;20043;-70
2022/01/13 04:57:19;;;;;;;73.65;22.95;;;;;;;;;;10516098;28;20080;-70
2022/01/13 05:02:21;;;;;;;72.82;21.92;;;;;;;;;;10514481;28;20087;-71
2022/01/13 05:07:24;;;;;;;68.82;21.83;;;;;;;;;;10516050;28;20102;-70
2022/01/13 05:12:33;;;;;;;66.10;21.15;;;;;;;;;;10515284;28;20047;-71
2022/01/13 05:23:12;;;;;;;67.23;20.27;;;;;;;;;;10515376;28;20108;-70
2022/01/13 05:28:16;;;;;;;63.33;20.38;;;;;;;;;;10515463;28;20040;-70
2022/01/13 05:33:19;;;;;;;62.20;20.98;;;;;;;;;;10515459;28;20055;-71
2022/01/13 05:38:22;;;;;;;60.35;19.75;;;;;;;;;;10514848;28;20051;-71
2022/01/13 05:43:26;;;;;;;65.25;20.05;;;;;;;;;;10515008;28;20048;-71
2022/01/13 05:48:31;;;;;;;55.65;20.05;;;;;;;;;;10514648;28;20048;-71
2022/01/13 05:53:33;;;;;;;60.13;19.98;;;;;;;;;;10514931;28;20044;-70
2022/01/13 05:58:37;;;;;;;63.53;21.52;;;;;;;;;;10515017;28;20063;-71
2022/01/13 06:03:40;;;;;;;58.60;20.25;;;;;;;;;;10513601;28;20090;-70
2022/01/13 06:08:42;;;;;;;65.45;23.08;;;;;;;;;;10514570;28;20048;-70
2022/01/13 06:13:46;;;;;;;66.03;25.38;;;;;;;;;;10512514;28;20032;-71
2022/01/13 06:18:50;;;;;;;63.40;22.00;;;;;;;;;;10522419;28;20049;-70
2022/01/13 06:23:52;;;;;;;72.40;23.63;;;;;;;;;;10522629;28;20044;-70
2022/01/13 06:28:56;;;;;;;76.03;23.42;;;;;;;;;;10521973;28;20044;-71
2022/01/13 06:33:59;;;;;;;67.03;22.08;;;;;;;;;;10521832;28;20040;-72
2022/01/13 06:39:02;;;;;;;76.45;23.77;;;;;;;;;;10523145;28;20267;-71
2022/01/13 06:44:06;;;;;;;72.43;21.75;;;;;;;;;;10523068;28;20085;-70
2022/01/13 06:49:09;;;;;;;72.40;22.70;;;;;;;;;;10521684;28;20052;-70
2022/01/13 06:54:12;;;;;;;84.80;25.23;;;;;;;;;;10522757;28;20044;-69
2022/01/13 06:59:16;;;;;;;72.82;22.65;;;;;;;;;;10521273;28;20059;-71
2022/01/13 07:04:19;;;;;;;79.45;22.95;;;;;;;;;;10522102;28;20041;-71
2022/01/13 07:09:22;;;;;;;66.55;20.75;;;;;;;;;;10521602;28;20056;-71
2022/01/13 07:14:26;;;;;;;69.72;20.92;;;;;;;;;;10521758;28;20049;-73
2022/01/13 07:19:29;;;;;;;61.42;20.58;;;;;;;;;;10521010;28;20060;-72
2022/01/13 07:24:32;;;;;;;62.60;20.95;;;;;;;;;;10520650;28;20332;-72
2022/01/13 07:29:39;;;;;;;55.85;20.25;;;;;;;;;;10520923;28;20261;-72
2022/01/13 07:34:43;;;;;;;65.32;21.90;;;;;;;;;;10527621;28;20129;-71
2022/01/13 07:39:45;;;;;;;53.00;20.08;;;;;;;;;;10518424;28;20212;-71
2022/01/13 07:44:49;;;;;;;65.05;21.13;;;;;;;;;;10519212;28;20262;-72
2022/01/13 07:49:52;;;;;;;55.75;19.77;;;;;;;;;;10518144;28;20085;-72
2022/01/13 07:54:55;;;;;;;55.13;19.08;;;;;;;;;;10518881;28;20064;-72
2022/01/13 07:59:59;;;;;;;53.17;19.48;;;;;;;;;;10517846;28;20041;-73
2022/01/13 08:05:02;;;;;;;49.20;19.10;;;;;;;;;;10519082;28;20044;-72
2022/01/13 08:10:05;;;;;;;54.38;20.55;;;;;;;;;;10517794;28;20394;-73
2022/01/13 08:15:13;;;;;;;48.42;18.50;;;;;;;;;;10517552;28;20032;-72
2022/01/13 08:20:16;;;;;;;52.72;19.75;;;;;;;;;;10448499;28;20042;-74
2022/01/13 08:25:19;;;;;;;40.35;17.73;;;;;;;;;;10434737;28;20229;-70
2022/01/13 08:30:23;;;;;;;46.78;17.35;;;;;;;;;;10434604;28;20060;-72
2022/01/13 08:35:26;;;;;;;47.00;17.02;;;;;;;;;;10433712;28;20045;-71
2022/01/13 08:40:29;;;;;;;44.03;18.35;;;;;;;;;;10434042;28;20045;-70
2022/01/13 08:45:33;;;;;;;44.75;17.75;;;;;;;;;;10434568;28;20237;-71
2022/01/13 08:50:36;;;;;;;47.63;18.98;;;;;;;;;;10393488;28;20046;-72
2022/01/13 08:55:39;;;;;;;50.80;20.17;;;;;;;;;;10434706;28;20045;-73
2022/01/13 09:00:44;;;;;;;45.50;19.48;;;;;;;;;;10432914;28;20317;-71
2022/01/13 09:05:47;;;;;;;43.13;18.05;;;;;;;;;;10447055;28;20037;-72
2022/01/13 09:10:49;;;;;;;40.42;16.85;;;;;;;;;;10431898;28;20042;-73
2022/01/13 09:15:58;;;;;;;41.95;18.65;;;;;;;;;;10441581;28;20260;-71
2022/01/13 09:21:02;;;;;;;40.53;17.60;;;;;;;;;;10515185;28;20043;-71
2022/01/13 09:26:04;;;;;;;56.60;19.83;;;;;;;;;;10514859;28;20360;-73
2022/01/13 09:31:09;;;;;;;50.15;19.30;;;;;;;;;;10513423;28;20052;-72
2022/01/13 09:36:11;;;;;;;44.88;18.08;;;;;;;;;;10516652;28;20197;-72
2022/01/13 09:41:15;;;;;;;38.92;17.95;;;;;;;;;;10515116;28;20240;-71
2022/01/13 09:46:19;;;;;;;43.03;17.30;;;;;;;;;;10515501;28;20048;-72
2022/01/13 09:51:25;;;;;;;38.22;14.95;;;;;;;;;;10513338;28;20037;-72
2022/01/13 09:56:27;;;;;;;49.35;20.35;;;;;;;;;;10529212;28;20056;-72
2022/01/13 10:01:34;;;;;;;40.90;15.85;;;;;;;;;;10513219;28;20112;-72
2022/01/13 10:06:46;;;;;;;37.53;16.35;;;;;;;;;;10529249;28;20044;-71
2022/01/13 10:11:54;;;;;;;41.83;18.73;;;;;;;;;;10527786;28;20108;-72
2022/01/13 10:17:00;;;;;;;33.97;16.00;;;;;;;;;;10515283;28;20164;-73
2022/01/13 10:22:05;;;;;;;33.25;15.32;;;;;;;;;;10527557;28;20047;-72
2022/01/13 10:27:09;;;;;;;29.65;14.57;;;;;;;;;;10514610;28;20040;-71
2022/01/13 10:32:15;;;;;;;29.17;13.63;;;;;;;;;;10515301;28;20048;-71
2022/01/13 10:37:20;;;;;;;27.98;14.80;;;;;;;;;;10516136;28;20040;-72
2022/01/13 10:48:04;;;;;;;28.27;14.13;;;;;;;;;;10513009;28;20040;-71
2022/01/13 10:53:09;;;;;;;29.58;14.63;;;;;;;;;;10512979;28;20033;-73
2022/01/13 10:58:14;;;;;;;29.98;13.50;;;;;;;;;;10512072;28;20332;-73
2022/01/13 11:03:20;;;;;;;26.17;13.45;;;;;;;;;;10532446;28;20251;-71
2022/01/13 11:08:28;;;;;;;;;;;;;;;;;;10535191;28;20047;-73
2022/01/13 11:13:36;;;;;;;26.50;13.82;;;;;;;;;;10521121;28;20012;-73
2022/01/13 11:18:40;;;;;;;28.65;14.30;;;;;;;;;;10524195;28;20056;-73
2022/01/13 11:23:46;;;;;;;27.60;14.73;;;;;;;;;;10520035;28;20036;-72
2022/01/13 11:28:49;;;;;;;25.65;12.77;;;;;;;;;;10534038;28;20048;-73
2022/01/13 11:33:54;;;;;;;29.65;15.73;;;;;;;;;;10519828;28;20036;-71
2022/01/13 11:39:00;;;;;;;28.55;14.48;;;;;;;;;;10519467;28;20274;-73
2022/01/13 11:44:13;;;;;;;30.92;15.85;;;;;;;;;;10534602;28;20040;-73
2022/01/13 11:49:20;;;;;;;26.88;14.45;;;;;;;;;;10534094;28;20040;-70
2022/01/13 11:54:30;;;;;;;26.25;13.02;;;;;;;;;;10521780;28;20033;-71
2022/01/13 11:59:33;;;;;;;22.95;11.57;;;;;;;;;;10533679;28;20047;-73
2022/01/13 12:04:57;;;;;;;22.92;12.15;;;;;;;;;;10518252;28;20051;-71
2022/01/13 12:10:00;;;;;;;23.73;13.43;;;;;;;;;;10533525;28;20070;-71
2022/01/13 12:15:17;;;;;;;23.45;14.05;;;;;;;;;;10517511;28;20310;-72
2022/01/13 12:20:37;;;;;;;22.85;13.38;;;;;;;;;;10519093;28;20071;-72
2022/01/13 12:25:40;;;;;;;24.13;14.52;;;;;;;;;;10531356;28;20352;-72
2022/01/13 12:30:49;;;;;;;27.95;14.73;;;;;;;;;;10519334;28;20048;-72
2022/01/13 12:35:54;;;;;;;26.13;13.63;;;;;;;;;;10523118;28;20055;-72
2022/01/13 12:41:03;;;;;;;25.60;14.95;;;;;;;;;;10518741;28;20037;-72
2022/01/13 12:46:08;;;;;;;27.33;14.63;;;;;;;;;;10530822;28;20044;-72
2022/01/13 12:51:16;;;;;;;26.33;14.52;;;;;;;;;;10517881;28;20044;-72
2022/01/13 12:56:21;;;;;;;31.15;16.85;;;;;;;;;;10517643;28;20371;-71
2022/01/13 13:01:25;;;;;;;29.95;15.65;;;;;;;;;;10515061;28;20102;-72
2022/01/13 13:06:35;;;;;;;32.30;17.03;;;;;;;;;;10515259;28;20040;-73
2022/01/13 13:11:43;;;;;;;26.88;15.68;;;;;;;;;;10529102;28;20036;-73
2022/01/13 13:16:48;;;;;;;29.17;16.05;;;;;;;;;;10524722;28;20080;-70
2022/01/13 13:21:52;;;;;;;30.98;16.55;;;;;;;;;;10529312;28;20087;-71
2022/01/13 13:26:55;;;;;;;27.03;15.03;;;;;;;;;;10514946;28;20048;-73
2022/01/13 13:31:58;;;;;;;28.95;15.48;;;;;;;;;;10514779;28;20042;-71
2022/01/13 13:37:02;;;;;;;28.35;14.88;;;;;;;;;;10513808;28;20335;-73
2022/01/13 13:42:09;;;;;;;30.60;14.73;;;;;;;;;;10515130;28;20322;-73
2022/01/13 13:47:15;;;;;;;31.92;16.05;;;;;;;;;;10519718;28;20040;-75
2022/01/13 13:52:21;;;;;;;35.65;16.23;;;;;;;;;;10529010;28;20255;-72
2022/01/13 13:57:33;;;;;;;31.17;15.02;;;;;;;;;;10528485;28;20052;-71
2022/01/13 14:02:37;;;;;;;34.10;16.05;;;;;;;;;;10529304;28;20208;-71
2022/01/13 14:07:44;;;;;;;36.50;17.20;;;;;;;;;;10514721;28;20044;-73
2022/01/13 14:12:50;;;;;;;38.00;18.25;;;;;;;;;;10529088;28;20047;-71
2022/01/13 14:17:54;;;;;;;33.10;16.58;;;;;;;;;;10520149;28;20067;-71
2022/01/13 14:23:01;;;;;;;36.75;18.52;;;;;;;;;;10515259;28;20227;-71
2022/01/13 14:28:05;;;;;;;44.97;19.25;;;;;;;;;;10528095;28;20044;-70
2022/01/13 14:33:30;;;;;;;49.20;21.53;;;;;;;;;;10513417;28;20048;-69
2022/01/13 14:38:49;;;;;;;50.20;21.37;;;;;;;;;;10515277;28;20075;-70
2022/01/13 14:44:00;;;;;;;48.00;21.08;;;;;;;;;;10525683;28;20325;-69
2022/01/13 14:49:04;;;;;;;52.67;23.83;;;;;;;;;;10509239;28;20248;-71
2022/01/13 14:54:08;;;;;;;53.58;23.42;;;;;;;;;;10522043;28;20348;-72
2022/01/13 14:59:11;;;;;;;46.92;23.05;;;;;;;;;;10521643;28;20131;-70
2022/01/13 15:04:14;;;;;;;51.13;22.38;;;;;;;;;;10522422;28;20032;-70
2022/01/13 15:09:19;;;;;;;53.70;24.55;;;;;;;;;;10522075;28;20058;-73
2022/01/13 15:14:22;;;;;;;55.27;23.73;;;;;;;;;;10520302;28;20041;-72
2022/01/13 15:19:26;;;;;;;73.68;29.77;;;;;;;;;;10523633;28;20060;-73
2022/01/13 15:24:31;;;;;;;51.85;23.73;;;;;;;;;;10521370;28;20032;-71
2022/01/13 15:29:34;;;;;;;54.25;26.02;;;;;;;;;;10521506;28;20047;-73
2022/01/13 15:34:36;;;;;;;56.72;26.67;;;;;;;;;;10522783;28;20251;-72
2022/01/13 15:39:40;;;;;;;64.22;29.00;;;;;;;;;;10494482;28;20056;-73
2022/01/13 15:44:43;;;;;;;57.85;26.58;;;;;;;;;;10518704;28;20044;-71
2022/01/13 15:49:46;;;;;;;65.55;29.52;;;;;;;;;;10518616;28;20348;-71
2022/01/13 15:54:50;;;;;;;63.85;27.58;;;;;;;;;;10519917;28;20036;-71
2022/01/13 15:59:53;;;;;;;59.25;26.50;;;;;;;;;;10520338;28;20048;-73
2022/01/13 16:04:56;;;;;;;55.70;26.60;;;;;;;;;;10518259;28;20240;-74
2022/01/13 16:10:01;;;;;;;59.50;27.90;;;;;;;;;;10519972;28;20047;-74
2022/01/13 16:15:06;;;;;;;59.07;25.93;;;;;;;;;;10519342;28;20049;-74
2022/01/13 16:20:11;;;;;;;61.03;24.63;;;;;;;;;;10518855;28;20340;-72
2022/01/13 16:25:15;;;;;;;54.92;26.00;;;;;;;;;;10520618;28;20084;-74
2022/01/13 16:30:19;;;;;;;53.13;24.50;;;;;;;;;;10520287;28;20044;-72
2022/01/13 16:35:23;;;;;;;45.95;24.38;;;;;;;;;;10519567;28;20041;-71
2022/01/13 16:40:30;;;;;;;53.92;26.38;;;;;;;;;;10519191;28;20051;-73
2022/01/13 16:45:36;;;;;;;53.65;24.40;;;;;;;;;;10516555;28;20257;-71
2022/01/13 16:50:39;;;;;;;61.05;25.75;;;;;;;;;;10518760;28;20040;-72
2022/01/13 16:55:49;;;;;;;52.97;24.63;;;;;;;;;;10511882;28;20041;-71
2022/01/13 17:00:52;;;;;;;53.85;24.42;;;;;;;;;;10515940;28;20057;-72
2022/01/13 17:05:56;;;;;;;52.88;25.17;;;;;;;;;;10493631;28;20036;-70
2022/01/13 17:11:00;;;;;;;51.05;23.30;;;;;;;;;;10516751;28;20085;-71
2022/01/13 17:16:04;;;;;;;49.13;22.48;;;;;;;;;;10521013;28;20060;-70
2022/01/13 17:21:07;;;;;;;55.67;22.00;;;;;;;;;;10517353;28;20056;-71
2022/01/13 17:26:11;;;;;;;44.75;21.95;;;;;;;;;;10515977;28;20047;-73
2022/01/13 17:31:14;;;;;;;47.83;21.73;;;;;;;;;;10516881;28;20370;-71
2022/01/13 17:36:19;;;;;;;52.90;22.98;;;;;;;;;;10516148;28;20064;-71
2022/01/13 17:41:23;;;;;;;;;;;;;;;;;;10530628;28;20037;-71
2022/01/13 17:46:28;;;;;;;45.63;20.75;;;;;;;;;;10515725;28;20097;-72
2022/01/13 17:51:31;;;;;;;46.70;23.73;;;;;;;;;;10516230;28;20052;-71
2022/01/13 17:56:35;;;;;;;53.28;25.00;;;;;;;;;;10512257;28;20123;-71
2022/01/13 18:01:39;;;;;;;60.83;25.65;;;;;;;;;;10510819;28;20039;-74
2022/01/13 18:06:42;;;;;;;57.40;24.75;;;;;;;;;;10516590;28;20043;-72
2022/01/13 18:11:47;;;;;;;55.55;24.33;;;;;;;;;;10512380;28;20236;-72
2022/01/13 18:16:51;;;;;;;58.88;24.35;;;;;;;;;;10525654;28;20052;-73
2022/01/13 18:21:56;;;;;;;48.92;24.05;;;;;;;;;;10523756;28;20041;-71
2022/01/13 18:27:00;;;;;;;56.78;25.02;;;;;;;;;;10524514;28;20049;-72
2022/01/13 18:32:03;;;;;;;51.42;25.25;;;;;;;;;;10519302;28;20037;-71
2022/01/13 18:37:07;;;;;;;47.63;21.75;;;;;;;;;;10482818;28;20052;-70
2022/01/13 18:42:14;;;;;;;50.40;21.73;;;;;;;;;;10516544;28;20055;-69
2022/01/13 18:47:17;;;;;;;41.58;19.90;;;;;;;;;;10536986;28;20227;-69
2022/01/13 18:52:21;;;;;;;47.97;21.27;;;;;;;;;;10523237;28;20079;-72
2022/01/13 18:57:25;;;;;;;51.88;23.33;;;;;;;;;;10523792;28;20067;-73
2022/01/13 19:02:28;;;;;;;48.10;24.70;;;;;;;;;;10546621;28;20052;-70
2022/01/13 19:07:31;;;;;;;56.83;24.73;;;;;;;;;;10522753;28;20041;-71
2022/01/13 19:12:35;;;;;;;54.50;24.42;;;;;;;;;;10558152;28;20051;-72
2022/01/13 19:17:56;;;;;;;46.28;23.35;;;;;;;;;;10562745;28;20052;-71
2022/01/13 19:23:01;;;;;;;41.55;21.25;;;;;;;;;;10577274;28;20239;-72
2022/01/13 19:28:07;;;;;;;46.70;21.73;;;;;;;;;;10545105;28;20085;-72
2022/01/13 19:33:11;;;;;;;44.90;21.52;;;;;;;;;;10535177;28;20360;-69
2022/01/13 19:38:15;;;;;;;43.58;20.98;;;;;;;;;;10521743;28;20036;-70
2022/01/13 19:43:19;;;;;;;47.75;21.50;;;;;;;;;;10521873;28;20051;-70
2022/01/13 19:48:22;;;;;;;43.35;22.20;;;;;;;;;;10533049;28;20048;-70
2022/01/13 19:53:25;;;;;;;39.75;22.50;;;;;;;;;;10528360;28;20093;-72
2022/01/13 19:58:29;;;;;;;42.85;22.60;;;;;;;;;;10555162;28;20113;-71
2022/01/13 20:03:33;;;;;;;46.50;22.83;;;;;;;;;;10563822;28;20044;-69
2022/01/13 20:08:36;;;;;;;46.88;22.13;;;;;;;;;;10540935;28;20386;-73
2022/01/13 20:13:40;;;;;;;48.83;22.77;;;;;;;;;;10519493;28;20053;-69
2022/01/13 20:18:43;;;;;;;47.53;23.80;;;;;;;;;;10519886;28;20371;-72
2022/01/13 20:23:46;;;;;;;50.42;22.80;;;;;;;;;;10519034;28;20051;-72
2022/01/13 20:28:50;;;;;;;59.97;25.90;;;;;;;;;;10520103;28;20059;-72
2022/01/13 20:33:53;;;;;;;53.33;24.80;;;;;;;;;;10518296;28;20332;-71
2022/01/13 20:38:56;;;;;;;52.60;23.48;;;;;;;;;;10517253;28;20048;-70
2022/01/13 20:44:01;;;;;;;50.20;23.05;;;;;;;;;;10518306;28;20037;-71
2022/01/13 20:49:05;;;;;;;48.88;23.48;;;;;;;;;;10518572;28;20236;-72
2022/01/13 20:54:08;;;;;;;47.65;21.02;;;;;;;;;;10555637;28;20063;-72
2022/01/13 20:59:12;;;;;;;43.60;21.60;;;;;;;;;;10536238;28;20059;-73
2022/01/13 21:04:15;;;;;;;42.78;21.20;;;;;;;;;;10518039;28;20222;-72
2022/01/13 21:09:18;;;;;;;41.75;21.63;;;;;;;;;;10517970;28;20043;-69
2022/01/13 21:14:23;;;;;;;49.72;23.15;;;;;;;;;;10518112;28;20362;-72
2022/01/13 21:19:27;;;;;;;44.75;20.42;;;;;;;;;;10515255;28;20052;-71
2022/01/13 21:24:30;;;;;;;46.85;21.63;;;;;;;;;;10513348;28;20051;-71
2022/01/13 21:29:36;;;;;;;43.20;21.27;;;;;;;;;;10517798;28;20048;-71
2022/01/13 21:34:38;;;;;;;40.23;20.03;;;;;;;;;;10515662;28;20036;-73
2022/01/13 21:39:41;;;;;;;36.42;19.02;;;;;;;;;;10516902;28;20332;-73
2022/01/13 21:44:47;;;;;;;39.25;18.88;;;;;;;;;;10555869;28;20040;-70
2022/01/13 21:49:51;;;;;;;33.85;18.25;;;;;;;;;;10545613;28;20209;-71
2022/01/13 21:54:54;;;;;;;42.88;20.40;;;;;;;;;;10532054;28;20237;-72
2022/01/13 21:59:58;;;;;;;41.15;19.25;;;;;;;;;;10515986;28;20060;-70
2022/01/13 22:05:01;;;;;;;39.17;18.27;;;;;;;;;;10515595;28;20037;-72
2022/01/13 22:10:05;;;;;;;32.78;16.73;;;;;;;;;;10515067;28;20090;-71
2022/01/13 22:15:11;;;;;;;34.33;16.27;;;;;;;;;;10551698;28;20156;-73
2022/01/13 22:20:15;;;;;;;35.28;18.42;;;;;;;;;;10516333;28;20272;-73
2022/01/13 22:25:18;;;;;;;36.13;17.73;;;;;;;;;;10517192;28;20040;-72
2022/01/13 22:30:22;;;;;;;36.88;18.42;;;;;;;;;;10514929;28;20051;-69
2022/01/13 22:35:25;;;;;;;35.72;17.50;;;;;;;;;;10515135;28;20037;-72
2022/01/13 22:40:27;;;;;;;37.25;16.77;;;;;;;;;;10515506;28;20078;-72
2022/01/13 22:45:32;;;;;;;31.65;16.40;;;;;;;;;;10513320;28;20045;-70
2022/01/13 22:50:35;;;;;;;34.13;17.38;;;;;;;;;;10503113;28;20045;-69
2022/01/13 22:55:37;;;;;;;35.70;16.30;;;;;;;;;;10473375;28;20051;-72
2022/01/13 23:00:45;;;;;;;40.53;17.80;;;;;;;;;;10538015;28;20056;-72
2022/01/13 23:05:47;;;;;;;33.40;16.27;;;;;;;;;;10523866;28;20252;-70
2022/01/13 23:10:51;;;;;;;41.47;18.38;;;;;;;;;;10483201;28;20279;-70
2022/01/13 23:26:36;;;;;;;37.83;17.17;;;;;;;;;;10534706;28;20044;-70
2022/01/13 23:31:41;;;;;;;31.50;16.65;;;;;;;;;;10520779;28;20048;-70
2022/01/13 23:36:43;;;;;;;37.55;17.23;;;;;;;;;;10521113;28;20037;-69
2022/01/13 23:41:47;;;;;;;39.92;17.42;;;;;;;;;;10519414;28;20045;-69
2022/01/13 23:47:04;;;;;;;34.40;16.38;;;;;;;;;;10520268;28;20048;-69
2022/01/13 23:52:09;;;;;;;36.17;16.67;;;;;;;;;;10534805;28;20041;-70
2022/01/13 23:57:16;;;;;;;35.67;16.47;;;;;;;;;;10520656;28;20328;-72
